Puente Piedra, Peru
Current Conditions -  °F | °C
As of 1:00 PM on Friday 31 Oct 2014 (Local Time) from SPIM Reporting Station
Overcast Overcast  
Wind Chill: 66°   Ceiling: 3000
Heat Index: 66°   Visibility: 6mi
Dew Point: 59°   Wind: 6mph
Humidity: 78%   Direction: 300°WNW
Pressure: 29.97"   Gusts: NA
Location:  11.88°S, 77.08°W
Report Text: SPIM 311800Z 30005KT 9999 SCT017 OVC030 19/15 Q1015 NOSIG RMK BIRD HAZARD RWY 15 PP000
Loading
Personal Weather Stations






























Interactive Weather Map
Tropical Storm Tracking
New forecast layout! Learn more

10-Day Weather Forecast

Advertisements
Track Severe Weather on mobile